Time;durP1;ratioP1;P1;durP2;ratioP2;P2;SDS_P1;SDS_P2;PMS_P1;PMS_P2;Temp;Humidity;BMP_temperature;BMP_pressure;BME280_temperature;BME280_humidity;BME280_pressure;Samples;Min_cycle;Max_cycle;Signal;HPM_P1;HPM_P2
2021/12/05 00:22:57;;;;;;;4.38;1.73;;;8.70;99.90;;;;;;4194040;28;20663;-51
2021/12/05 00:25:01;;;;;;;3.70;2.10;;;8.90;99.90;;;;;;4195054;28;20094;-53
2021/12/05 00:27:13;;;;;;;2.40;2.25;;;9.00;99.90;;;;;;4195266;28;20044;-55
2021/12/05 00:49:28;;;;;;;12.95;7.68;;;8.90;99.90;;;;;;4193559;28;20053;-49
2021/12/05 00:52:24;;;;;;;11.63;8.02;;;8.90;99.90;;;;;;4176861;28;20609;-51
2021/12/05 01:03:25;;;;;;;6.82;5.30;;;8.90;99.90;;;;;;4195230;28;20059;-49
2021/12/05 01:12:41;;;;;;;5.47;5.03;;;8.80;99.90;;;;;;4193851;28;20040;-51
2021/12/05 01:16:52;;;;;;;4.53;3.97;;;8.70;99.90;;;;;;4193245;28;20041;-50
2021/12/05 01:18:56;;;;;;;3.45;3.25;;;8.80;99.90;;;;;;4192102;28;20396;-51
2021/12/05 01:21:06;;;;;;;6.10;2.40;;;8.90;99.90;;;;;;4193560;28;20040;-50
2021/12/05 01:23:30;;;;;;;4.63;3.88;;;8.70;99.90;;;;;;4197847;28;20098;-48
2021/12/05 01:25:43;;;;;;;2.83;1.80;;;8.60;99.90;;;;;;4192057;28;20078;-50
2021/12/05 01:28:01;;;;;;;7.60;3.17;;;8.60;99.90;;;;;;4193897;28;20048;-51
2021/12/05 01:30:24;;;;;;;4.15;2.40;;;8.70;99.90;;;;;;4191811;28;20041;-48
2021/12/05 01:34:45;;;;;;;7.60;5.40;;;8.90;99.90;;;;;;4191835;28;20047;-49
2021/12/05 01:39:21;;;;;;;4.63;2.97;;;8.90;99.90;;;;;;4193290;28;20551;-53
2021/12/05 01:44:31;;;;;;;4.75;1.58;;;8.80;99.90;;;;;;4194257;28;20040;-51
2021/12/05 02:00:37;;;;;;;3.03;2.83;;;8.90;99.90;;;;;;4208300;28;20040;-52
2021/12/05 02:16:27;;;;;;;5.65;1.70;;;9.30;99.90;;;;;;4193380;28;20040;-52
2021/12/05 02:32:51;;;;;;;8.98;2.95;;;9.30;99.90;;;;;;4193357;28;20052;-48
2021/12/05 02:41:36;;;;;;;5.47;2.53;;;9.20;99.90;;;;;;4186361;28;20511;-49
2021/12/05 02:43:43;;;;;;;6.03;2.20;;;9.30;99.90;;;;;;4192582;28;20298;-47
2021/12/05 02:45:47;;;;;;;6.40;2.53;;;9.60;99.90;;;;;;4191483;28;20028;-49
2021/12/05 02:47:51;;;;;;;8.20;2.33;;;9.70;99.90;;;;;;4191342;28;20040;-49
2021/12/05 02:49:56;;;;;;;3.33;1.75;;;9.50;99.90;;;;;;4187416;28;20044;-49
2021/12/05 02:52:04;;;;;;;6.85;1.42;;;9.10;99.90;;;;;;4191630;28;20036;-49
2021/12/05 02:54:16;;;;;;;4.40;1.98;;;8.90;99.90;;;;;;4193294;28;20563;-49
2021/12/05 02:56:20;;;;;;;3.25;2.00;;;9.00;99.90;;;;;;4192571;28;20488;-49
2021/12/05 02:58:42;;;;;;;6.47;2.45;;;9.10;99.90;;;;;;4190639;28;20047;-50
2021/12/05 03:01:06;;;;;;;2.90;2.05;;;8.90;99.90;;;;;;4176817;28;20071;-49
2021/12/05 03:03:18;;;;;;;6.05;1.98;;;9.20;99.90;;;;;;4191737;28;20040;-50
2021/12/05 03:05:22;;;;;;;10.48;2.53;;;9.10;99.90;;;;;;4192721;28;20040;-47
2021/12/05 03:07:37;;;;;;;5.22;3.08;;;9.00;99.90;;;;;;4192401;28;20041;-48
2021/12/05 03:09:41;;;;;;;4.25;1.90;;;9.20;99.90;;;;;;4182920;28;20484;-48
2021/12/05 03:11:44;;;;;;;3.03;1.67;;;9.20;99.90;;;;;;4192257;28;20326;-49
2021/12/05 03:13:47;;;;;;;3.33;1.63;;;9.20;99.90;;;;;;4190483;28;20094;-47
2021/12/05 03:15:50;;;;;;;3.80;1.88;;;9.20;99.90;;;;;;4193073;28;20040;-51
2021/12/05 03:17:53;;;;;;;1.60;1.20;;;8.90;99.90;;;;;;4191396;28;20062;-49
2021/12/05 03:19:55;;;;;;;5.88;1.90;;;8.70;99.90;;;;;;4195011;28;20037;-48
2021/12/05 03:21:58;;;;;;;7.93;1.92;;;8.50;99.90;;;;;;4194455;28;20040;-47
2021/12/05 03:24:00;;;;;;;6.57;2.15;;;8.40;99.90;;;;;;4195895;28;20028;-50
2021/12/05 03:26:05;;;;;;;5.53;1.95;;;8.40;99.90;;;;;;4195582;28;20041;-49
2021/12/05 03:28:09;;;;;;;3.17;1.55;;;8.40;99.90;;;;;;4197006;28;20040;-48
2021/12/05 03:30:17;;;;;;;13.55;3.05;;;8.30;99.90;;;;;;4195262;28;20040;-47
2021/12/05 03:32:20;;;;;;;3.67;3.38;;;8.60;99.90;;;;;;4194947;28;20040;-48
2021/12/05 03:34:23;;;;;;;5.70;3.30;;;8.70;99.90;;;;;;4194845;28;20041;-48
2021/12/05 03:36:26;;;;;;;13.00;6.07;;;8.80;99.90;;;;;;4194229;28;20041;-49
2021/12/05 03:38:28;;;;;;;6.82;2.40;;;8.80;99.90;;;;;;4195491;28;20044;-50
2021/12/05 03:40:33;;;;;;;6.35;2.55;;;8.70;99.90;;;;;;4188735;28;20120;-49
2021/12/05 03:42:36;;;;;;;3.35;1.88;;;8.70;99.90;;;;;;4191247;28;20044;-52
2021/12/05 03:44:40;;;;;;;4.60;2.85;;;9.00;99.90;;;;;;4195785;28;20091;-48
2021/12/05 03:46:42;;;;;;;6.95;2.97;;;9.00;99.90;;;;;;4192782;28;20036;-48
2021/12/05 03:48:50;;;;;;;8.07;2.25;;;8.80;99.90;;;;;;4195773;28;20107;-49
2021/12/05 03:50:54;;;;;;;5.65;2.45;;;8.80;99.90;;;;;;4195410;28;20047;-50
2021/12/05 03:52:58;;;;;;;8.77;2.10;;;8.80;99.90;;;;;;4194536;28;20427;-49
2021/12/05 03:55:01;;;;;;;6.53;1.98;;;8.80;99.90;;;;;;4193211;28;20531;-48
2021/12/05 03:57:03;;;;;;;10.55;2.53;;;9.00;99.90;;;;;;4195998;28;20053;-50
2021/12/05 03:59:08;;;;;;;7.22;1.67;;;8.90;99.90;;;;;;4194236;28;20036;-47
2021/12/05 04:01:12;;;;;;;12.30;2.90;;;8.80;99.90;;;;;;4179364;28;20396;-49
2021/12/05 04:03:17;;;;;;;4.75;1.95;;;8.60;99.90;;;;;;4193382;28;20082;-49
2021/12/05 04:05:20;;;;;;;3.40;1.55;;;8.60;99.90;;;;;;4181291;28;20063;-48
2021/12/05 04:07:22;;;;;;;4.53;1.85;;;8.50;99.90;;;;;;4195105;28;20047;-46
2021/12/05 04:09:25;;;;;;;6.03;1.50;;;8.50;99.90;;;;;;4195286;28;20045;-49
2021/12/05 04:11:35;;;;;;;4.32;1.38;;;8.60;99.90;;;;;;4192322;28;20106;-47
2021/12/05 04:13:38;;;;;;;4.75;2.13;;;8.60;99.90;;;;;;4194213;28;20381;-47
2021/12/05 04:15:41;;;;;;;3.33;2.08;;;8.30;99.90;;;;;;4194694;28;20056;-50
2021/12/05 04:17:43;;;;;;;5.20;2.00;;;8.30;99.90;;;;;;4194833;28;20044;-48
2021/12/05 04:19:45;;;;;;;8.82;2.40;;;8.30;99.90;;;;;;4196628;28;20044;-47
2021/12/05 04:21:48;;;;;;;5.97;2.10;;;8.20;99.90;;;;;;4204837;28;20036;-47
2021/12/05 04:23:50;;;;;;;2.95;1.80;;;8.00;99.90;;;;;;4192303;28;20044;-48
2021/12/05 04:25:53;;;;;;;2.97;1.77;;;8.10;99.90;;;;;;4194718;28;20395;-47
2021/12/05 04:27:55;;;;;;;5.63;2.20;;;8.10;99.90;;;;;;4193794;28;20047;-47
2021/12/05 04:29:58;;;;;;;3.70;1.83;;;8.10;99.90;;;;;;4194805;28;20072;-48
2021/12/05 04:32:00;;;;;;;4.28;2.20;;;8.60;99.90;;;;;;4193737;28;20044;-49
2021/12/05 04:34:04;;;;;;;5.22;1.80;;;8.40;99.90;;;;;;4194600;28;20468;-47
2021/12/05 04:36:07;;;;;;;6.82;2.05;;;8.10;99.90;;;;;;4192995;28;20116;-49
2021/12/05 04:38:09;;;;;;;;;;;8.00;99.90;;;;;;4196636;28;20044;-46
2021/12/05 04:40:12;;;;;;;1.90;1.63;;;8.30;99.90;;;;;;4194285;28;19931;-48
2021/12/05 04:42:15;;;;;;;4.97;1.73;;;8.40;99.90;;;;;;4194835;28;20036;-49
2021/12/05 04:44:17;;;;;;;;;;;8.60;99.90;;;;;;4195150;28;20626;-46
2021/12/05 04:46:22;;;;;;;3.13;2.47;;;8.30;99.90;;;;;;4194683;28;20024;-49
2021/12/05 04:48:24;;;;;;;2.03;1.88;;;8.30;99.90;;;;;;4188945;28;20080;-47
2021/12/05 04:50:28;;;;;;;;;;;8.00;99.90;;;;;;4184477;28;20060;-47
2021/12/05 04:52:30;;;;;;;3.97;3.67;;;7.70;99.90;;;;;;4192803;28;19960;-46
2021/12/05 04:54:33;;;;;;;2.58;1.85;;;7.30;99.90;;;;;;4193474;28;20057;-47
2021/12/05 04:56:35;;;;;;;6.63;2.72;;;7.10;99.90;;;;;;4195622;28;20053;-50
2021/12/05 04:58:37;;;;;;;3.20;2.28;;;7.20;99.90;;;;;;4192798;28;20075;-48
2021/12/05 05:00:43;;;;;;;2.70;2.35;;;7.10;99.90;;;;;;4193935;28;20049;-47
2021/12/05 05:02:46;;;;;;;4.80;2.38;;;7.20;99.90;;;;;;4193929;28;20036;-48
2021/12/05 05:04:50;;;;;;;3.08;2.13;;;7.30;99.90;;;;;;4195256;28;20044;-48
2021/12/05 05:06:55;;;;;;;5.85;2.63;;;7.40;99.90;;;;;;4192502;28;20138;-48
2021/12/05 05:08:58;;;;;;;5.70;2.00;;;7.40;99.90;;;;;;4192403;28;20084;-48
2021/12/05 05:11:05;;;;;;;5.70;3.38;;;7.30;99.90;;;;;;4193762;28;20048;-47
2021/12/05 05:13:08;;;;;;;9.75;3.38;;;7.50;99.90;;;;;;4192984;28;20056;-46
2021/12/05 05:15:12;;;;;;;2.42;2.33;;;7.70;99.90;;;;;;4192031;28;20393;-48
2021/12/05 05:17:14;;;;;;;7.05;2.20;;;7.80;99.90;;;;;;4205998;28;20411;-48
2021/12/05 05:19:18;;;;;;;3.28;2.28;;;7.70;99.90;;;;;;4196282;28;20086;-47
2021/12/05 05:23:41;;;;;;;3.03;2.28;;;7.70;99.90;;;;;;4192190;28;20064;-48
2021/12/05 05:50:30;;;;;;;4.10;2.97;;;6.70;99.90;;;;;;4193166;28;20451;-48
2021/12/05 05:52:33;;;;;;;3.42;3.13;;;6.50;99.90;;;;;;4194601;28;20063;-48
2021/12/05 05:54:35;;;;;;;13.35;10.70;;;6.60;99.90;;;;;;4193767;28;20086;-49
2021/12/05 05:56:39;;;;;;;7.55;3.83;;;6.70;99.90;;;;;;4193214;28;20083;-47
2021/12/05 05:58:47;;;;;;;7.80;2.95;;;6.70;99.90;;;;;;4193806;28;20464;-48
2021/12/05 06:01:02;;;;;;;8.40;3.42;;;6.70;99.90;;;;;;4192011;28;20469;-48
2021/12/05 06:03:23;;;;;;;3.00;2.72;;;6.70;99.90;;;;;;4192506;28;20055;-46
2021/12/05 06:05:25;;;;;;;6.53;2.53;;;6.90;99.90;;;;;;4193914;28;20053;-46
2021/12/05 06:07:28;;;;;;;;;;;7.20;99.90;;;;;;4192934;28;20590;-46
2021/12/05 06:09:30;;;;;;;3.53;2.58;;;7.20;99.90;;;;;;4192650;28;20015;-50
2021/12/05 06:11:32;;;;;;;9.15;2.90;;;7.10;99.90;;;;;;4191944;28;20056;-46
2021/12/05 06:13:36;;;;;;;3.85;2.60;;;6.90;99.90;;;;;;4191560;28;20471;-47
2021/12/05 06:15:38;;;;;;;8.02;2.45;;;6.80;99.90;;;;;;4191067;28;20128;-48
2021/12/05 06:17:41;;;;;;;10.90;3.50;;;6.80;99.90;;;;;;4192522;28;20053;-47
2021/12/05 06:19:43;;;;;;;5.63;2.45;;;6.70;99.90;;;;;;4191514;28;20055;-48
2021/12/05 06:21:46;;;;;;;3.75;2.53;;;6.80;99.90;;;;;;4191201;28;20059;-48
2021/12/05 06:23:48;;;;;;;6.40;3.53;;;6.80;99.90;;;;;;4191390;28;20058;-47
2021/12/05 06:25:51;;;;;;;6.43;2.67;;;6.70;99.90;;;;;;4192805;28;20070;-47
2021/12/05 06:27:59;;;;;;;8.90;3.28;;;6.80;99.90;;;;;;4191949;28;20159;-48
2021/12/05 06:45:58;;;;;;;9.20;3.72;;;7.00;99.90;;;;;;4192147;28;20464;-46
2021/12/05 06:48:00;;;;;;;3.65;3.35;;;7.00;99.90;;;;;;4190700;28;20072;-46
2021/12/05 06:50:02;;;;;;;3.13;2.72;;;7.20;99.90;;;;;;4187274;28;20080;-49
2021/12/05 06:52:16;;;;;;;9.52;5.07;;;7.20;99.90;;;;;;4187788;28;20522;-47
2021/12/05 06:54:19;;;;;;;10.13;4.45;;;7.40;99.90;;;;;;4191933;28;20363;-47
2021/12/05 06:56:21;;;;;;;7.93;3.58;;;7.30;99.90;;;;;;4191227;28;20523;-46
2021/12/05 06:58:23;;;;;;;7.90;4.07;;;7.30;99.90;;;;;;4185773;28;20524;-47
2021/12/05 07:00:29;;;;;;;10.25;3.83;;;7.50;99.90;;;;;;4189775;28;20051;-48
2021/12/05 07:02:31;;;;;;;8.80;7.35;;;7.40;99.90;;;;;;4192494;28;20099;-48
2021/12/05 07:06:39;;;;;;;5.80;5.25;;;7.30;99.90;;;;;;4193040;28;20052;-47
2021/12/05 07:08:46;;;;;;;8.95;4.40;;;7.30;99.90;;;;;;4189420;28;20446;-47
2021/12/05 07:15:34;;;;;;;7.28;3.58;;;7.50;99.90;;;;;;4108898;28;20054;-48
2021/12/05 07:19:57;;;;;;;5.57;3.08;;;7.50;99.90;;;;;;4109868;28;20826;-48
2021/12/05 07:22:03;;;;;;;6.45;2.60;;;7.40;99.90;;;;;;4119270;28;20129;-47
2021/12/05 07:26:47;;;;;;;5.82;2.58;;;7.50;99.90;;;;;;4116411;28;20589;-47
2021/12/05 07:40:33;;;;;;;11.48;3.05;;;8.00;99.90;;;;;;4111228;28;20043;-47
2021/12/05 07:42:41;;;;;;;10.30;3.78;;;8.00;99.90;;;;;;4117744;28;20054;-47
2021/12/05 07:44:43;;;;;;;6.47;3.85;;;8.00;99.90;;;;;;4114828;28;20039;-47
2021/12/05 07:46:46;;;;;;;14.38;3.35;;;7.90;99.90;;;;;;4107871;28;20050;-49
2021/12/05 07:48:49;;;;;;;6.07;3.08;;;8.00;99.90;;;;;;4105351;28;20110;-47
2021/12/05 07:53:17;;;;;;;7.40;4.43;;;8.00;99.90;;;;;;4173564;28;20051;-51
2021/12/05 07:55:26;;;;;;;7.93;3.88;;;8.10;99.90;;;;;;4175830;28;20445;-48
2021/12/05 07:57:35;;;;;;;11.43;3.25;;;8.10;99.90;;;;;;4175290;28;20072;-49
2021/12/05 08:16:03;;;;;;;5.80;2.97;;;8.30;99.90;;;;;;4165366;28;20432;-48
2021/12/05 08:18:06;;;;;;;6.53;3.13;;;8.50;99.90;;;;;;4177463;28;23869;-49
2021/12/05 08:20:11;;;;;;;6.57;2.88;;;8.70;99.90;;;;;;4177497;28;20153;-49
2021/12/05 08:22:15;;;;;;;10.02;2.70;;;8.70;99.90;;;;;;4175969;28;20044;-47
2021/12/05 08:24:17;;;;;;;6.82;2.88;;;8.70;99.90;;;;;;4173675;28;20071;-46
2021/12/05 08:26:26;;;;;;;2.63;2.42;;;8.70;99.90;;;;;;4174665;28;20127;-48
2021/12/05 08:30:59;;;;;;;19.02;5.20;;;8.70;99.90;;;;;;4170318;28;20064;-48
2021/12/05 08:35:38;;;;;;;17.08;5.50;;;8.80;99.90;;;;;;4176966;28;20048;-49
2021/12/05 08:38:23;;;;;;;9.20;4.85;;;8.80;99.90;;;;;;4172170;28;20515;-48
2021/12/05 08:42:39;;;;;;;9.43;2.67;;;8.90;99.90;;;;;;4178403;28;20048;-47
2021/12/05 09:08:37;;;;;;;6.35;2.33;;;9.40;99.90;;;;;;4177901;28;20063;-49
2021/12/05 09:27:22;;;;;;;5.35;1.38;;;9.60;99.90;;;;;;4177671;28;20048;-51
2021/12/05 09:38:51;;;;;;;3.13;1.52;;;9.80;99.90;;;;;;4179877;28;20471;-51
2021/12/05 10:06:48;;;;;;;4.78;1.45;;;9.60;99.90;;;;;;4188485;28;20089;-47
2021/12/05 10:09:09;;;;;;;5.25;2.63;;;9.50;99.90;;;;;;4188209;28;20040;-46
2021/12/05 10:13:59;;;;;;;6.82;3.40;;;9.50;99.90;;;;;;4189965;28;20054;-48
2021/12/05 10:16:28;;;;;;;13.02;6.70;;;9.40;99.90;;;;;;4192825;28;20041;-51
2021/12/05 10:37:14;;;;;;;10.95;3.10;;;9.30;99.90;;;;;;4187235;28;20051;-51
2021/12/05 10:39:22;;;;;;;2.70;2.08;;;9.30;99.90;;;;;;4187945;28;20081;-51
2021/12/05 10:43:34;;;;;;;5.65;2.85;;;9.20;99.90;;;;;;4189183;28;20140;-50
2021/12/05 10:45:40;;;;;;;4.68;2.03;;;9.20;99.90;;;;;;4189904;28;20548;-53
2021/12/05 10:47:46;;;;;;;5.97;2.85;;;9.20;99.90;;;;;;4189489;28;20068;-51
2021/12/05 10:49:48;;;;;;;5.95;4.05;;;9.20;99.90;;;;;;4187378;28;20083;-50
2021/12/05 10:51:57;;;;;;;3.47;2.58;;;9.20;99.90;;;;;;4186098;28;20139;-51
2021/12/05 10:54:17;;;;;;;3.72;2.35;;;9.30;99.90;;;;;;4169298;28;20231;-49
2021/12/05 10:56:25;;;;;;;9.77;3.03;;;9.30;99.90;;;;;;4191001;28;20040;-51
2021/12/05 10:58:50;;;;;;;4.95;3.78;;;9.40;99.90;;;;;;4189712;28;20044;-49
2021/12/05 11:01:07;;;;;;;13.27;11.15;;;9.40;99.90;;;;;;4188577;28;20048;-51
2021/12/05 11:03:19;;;;;;;9.02;6.18;;;9.50;99.90;;;;;;4187499;28;20058;-52
2021/12/05 11:05:35;;;;;;;7.40;3.22;;;9.50;99.90;;;;;;4187905;28;20080;-52
2021/12/05 11:07:39;;;;;;;7.20;4.30;;;9.50;99.90;;;;;;4186983;28;20055;-50
2021/12/05 11:09:49;;;;;;;39.78;23.90;;;9.50;99.90;;;;;;4190454;28;20048;-50
2021/12/05 11:12:08;;;;;;;47.58;27.30;;;9.50;99.90;;;;;;4184962;28;20502;-51
2021/12/05 11:14:14;;;;;;;8.05;6.78;;;9.50;99.90;;;;;;4184985;28;20053;-50
2021/12/05 11:16:37;;;;;;;8.75;4.20;;;9.60;99.90;;;;;;4185850;28;20149;-48
2021/12/05 11:18:44;;;;;;;3.78;3.17;;;9.70;99.90;;;;;;4189854;28;20045;-51
2021/12/05 11:20:47;;;;;;;6.53;3.30;;;9.60;99.90;;;;;;4186073;28;20102;-50
2021/12/05 11:22:50;;;;;;;5.65;2.67;;;9.80;99.90;;;;;;4185726;28;20046;-50
2021/12/05 11:24:58;;;;;;;6.47;3.47;;;9.90;99.90;;;;;;4184219;28;20045;-48
2021/12/05 11:27:14;;;;;;;4.90;3.50;;;9.90;99.90;;;;;;4184810;28;20404;-48
2021/12/05 11:29:16;;;;;;;7.00;2.08;;;9.90;99.90;;;;;;4183208;28;20068;-52
2021/12/05 11:31:31;;;;;;;7.65;3.72;;;10.00;99.90;;;;;;4182584;28;20513;-51
2021/12/05 11:33:43;;;;;;;5.80;3.42;;;9.80;99.90;;;;;;4180144;28;20067;-52
2021/12/05 11:36:00;;;;;;;10.27;6.18;;;9.90;99.90;;;;;;4183269;28;21725;-52
2021/12/05 11:38:28;;;;;;;5.35;4.53;;;10.00;99.90;;;;;;4182582;28;20075;-53
2021/12/05 11:40:47;;;;;;;5.30;1.70;;;10.20;99.90;;;;;;4184724;28;20120;-53
2021/12/05 11:42:56;;;;;;;16.40;5.57;;;10.30;99.90;;;;;;4188185;28;20087;-53
2021/12/05 11:45:05;;;;;;;10.25;9.05;;;10.30;99.90;;;;;;4189605;28;20079;-53
2021/12/05 11:47:16;;;;;;;13.70;9.48;;;10.50;99.90;;;;;;4189764;28;20052;-52
2021/12/05 11:49:21;;;;;;;8.20;7.25;;;10.30;99.90;;;;;;4170065;28;20049;-52
2021/12/05 11:51:31;;;;;;;8.35;2.35;;;10.40;99.90;;;;;;4191058;28;20049;-53
2021/12/05 11:53:41;;;;;;;5.35;1.52;;;10.20;99.90;;;;;;4188974;28;20048;-53
2021/12/05 11:55:43;;;;;;;1.88;1.45;;;10.00;99.90;;;;;;4190398;28;21065;-52
2021/12/05 11:57:45;;;;;;;13.45;6.68;;;9.80;99.90;;;;;;4191882;28;20483;-53
2021/12/05 11:59:53;;;;;;;4.22;1.90;;;9.70;99.90;;;;;;4184452;28;20504;-52
2021/12/05 12:02:05;;;;;;;3.65;2.70;;;9.50;99.90;;;;;;4189847;28;20516;-53
2021/12/05 12:04:10;;;;;;;4.85;4.20;;;9.40;99.90;;;;;;4194494;28;20136;-52
2021/12/05 12:06:18;;;;;;;2.42;2.20;;;9.40;99.90;;;;;;4193947;28;20076;-52
2021/12/05 12:08:20;;;;;;;6.68;2.42;;;9.30;99.90;;;;;;4194921;28;20403;-52
2021/12/05 12:10:32;;;;;;;6.50;2.00;;;9.40;99.90;;;;;;4195409;28;20132;-52
2021/12/05 12:12:34;;;;;;;2.42;1.70;;;9.60;99.90;;;;;;4195737;28;20477;-52
2021/12/05 12:14:36;;;;;;;4.53;2.70;;;9.60;99.90;;;;;;4194082;28;20056;-52
2021/12/05 12:16:38;;;;;;;10.75;6.97;;;9.60;99.90;;;;;;4195900;28;20045;-52
2021/12/05 12:18:44;;;;;;;6.70;6.22;;;9.60;99.90;;;;;;4192590;28;20044;-52
2021/12/05 12:20:47;;;;;;;10.73;5.07;;;9.50;99.90;;;;;;4195316;28;20053;-52
2021/12/05 12:22:53;;;;;;;6.90;6.10;;;9.40;99.90;;;;;;4194020;28;20071;-52
2021/12/05 12:25:01;;;;;;;7.97;7.03;;;9.40;99.90;;;;;;4195710;28;20798;-53
2021/12/05 12:27:04;;;;;;;7.25;4.05;;;9.20;99.90;;;;;;4193396;28;20477;-51
2021/12/05 12:29:11;;;;;;;25.55;10.95;;;9.10;99.90;;;;;;4195200;28;20053;-52
2021/12/05 12:31:25;;;;;;;32.70;20.27;;;9.20;99.90;;;;;;4194504;28;20075;-52
2021/12/05 12:33:32;;;;;;;6.88;5.43;;;9.20;99.90;;;;;;4193525;28;20378;-52
2021/12/05 12:35:35;;;;;;;8.25;3.05;;;9.20;99.90;;;;;;4193382;28;20527;-52
2021/12/05 12:38:17;;;;;;;6.45;4.70;;;9.10;99.90;;;;;;4193110;28;20067;-52
2021/12/05 12:40:41;;;;;;;3.70;3.50;;;9.00;99.90;;;;;;4134250;28;20046;-51
2021/12/05 12:42:43;;;;;;;7.85;4.40;;;9.10;99.90;;;;;;4128416;28;20133;-51
2021/12/05 12:45:14;;;;;;;5.25;4.85;;;9.10;99.90;;;;;;4127564;28;20201;-52
2021/12/05 12:47:51;;;;;;;9.15;7.40;;;9.20;99.90;;;;;;4131971;28;20498;-53
2021/12/05 12:49:53;;;;;;;6.40;3.95;;;9.20;99.90;;;;;;4133411;28;20466;-52
2021/12/05 12:52:02;;;;;;;9.00;4.15;;;9.30;99.90;;;;;;4140139;28;20600;-53
2021/12/05 12:54:13;;;;;;;5.22;4.07;;;9.30;99.90;;;;;;4143359;28;20561;-50
2021/12/05 12:56:22;;;;;;;4.28;3.70;;;9.30;99.90;;;;;;4154039;28;20153;-53
2021/12/05 12:58:49;;;;;;;3.53;2.95;;;9.30;99.90;;;;;;4145346;28;20046;-52
2021/12/05 13:00:51;;;;;;;2.47;1.83;;;9.60;99.90;;;;;;4154274;28;20076;-52
2021/12/05 13:02:59;;;;;;;8.25;3.22;;;9.70;99.90;;;;;;4144421;28;20080;-52
2021/12/05 13:05:21;;;;;;;3.13;1.58;;;9.70;99.90;;;;;;4142461;28;20508;-52
2021/12/05 13:10:02;;;;;;;10.23;2.10;;;9.90;99.90;;;;;;4144837;28;20053;-53
2021/12/05 13:12:04;;;;;;;5.78;1.83;;;10.20;99.90;;;;;;4141583;28;20046;-53
2021/12/05 13:14:06;;;;;;;6.18;2.58;;;10.30;99.90;;;;;;4146100;28;20492;-52
2021/12/05 13:16:15;;;;;;;6.20;2.58;;;10.10;99.90;;;;;;4178817;28;20059;-51
2021/12/05 13:18:33;;;;;;;5.65;2.88;;;9.90;99.90;;;;;;4175474;28;20059;-52
2021/12/05 13:20:41;;;;;;;9.55;3.95;;;9.70;99.70;;;;;;4177199;28;20427;-53
2021/12/05 13:23:07;;;;;;;4.50;3.90;;;9.60;99.90;;;;;;4176835;28;20045;-53
2021/12/05 13:25:10;;;;;;;9.88;8.85;;;9.50;99.90;;;;;;4162111;28;20073;-52
2021/12/05 13:27:32;;;;;;;14.60;12.25;;;9.50;99.90;;;;;;4158490;28;20045;-51
2021/12/05 13:29:37;;;;;;;24.40;14.43;;;9.50;99.90;;;;;;4177661;28;20466;-52
2021/12/05 13:31:45;;;;;;;10.63;5.57;;;9.60;99.90;;;;;;4176127;28;20052;-53
2021/12/05 13:33:48;;;;;;;41.55;26.77;;;9.70;99.90;;;;;;4176560;28;20124;-53
2021/12/05 13:35:57;;;;;;;;;;;9.70;99.90;;;;;;4178313;28;20111;-53
2021/12/05 13:38:00;;;;;;;15.07;9.68;;;9.60;99.90;;;;;;4177474;28;19924;-53
2021/12/05 13:40:17;;;;;;;9.23;8.05;;;9.60;99.90;;;;;;4175025;28;20080;-52
2021/12/05 13:42:34;;;;;;;18.55;13.02;;;9.70;99.90;;;;;;4176810;28;20053;-53
2021/12/05 13:45:04;;;;;;;10.90;9.90;;;9.70;99.90;;;;;;4175845;28;20048;-53
2021/12/05 13:47:18;;;;;;;17.88;10.90;;;9.70;99.90;;;;;;4175145;28;20136;-53
2021/12/05 13:49:34;;;;;;;14.82;11.13;;;9.70;99.90;;;;;;4177516;28;20056;-52
2021/12/05 13:51:36;;;;;;;4.32;3.72;;;9.60;99.90;;;;;;4191836;28;20057;-52
2021/12/05 13:53:51;;;;;;;10.10;4.55;;;9.60;99.90;;;;;;4193725;28;20337;-52
2021/12/05 13:55:53;;;;;;;7.45;5.43;;;9.60;99.90;;;;;;4191772;28;20401;-52
2021/12/05 13:58:14;;;;;;;;;;;9.40;99.90;;;;;;4194418;28;20055;-52
2021/12/05 14:00:42;;;;;;;5.72;3.50;;;9.20;99.90;;;;;;4191644;28;19931;-53
2021/12/05 14:02:53;;;;;;;2.08;1.80;;;8.80;99.90;;;;;;4187155;28;20048;-51
2021/12/05 14:05:16;;;;;;;4.32;2.67;;;8.60;99.90;;;;;;4192567;28;20044;-51
2021/12/05 14:07:18;;;;;;;3.47;2.60;;;8.50;99.90;;;;;;4192846;28;20063;-52
2021/12/05 14:09:32;;;;;;;6.85;4.30;;;8.50;99.90;;;;;;4192698;28;20685;-52
2021/12/05 14:11:38;;;;;;;3.78;3.22;;;8.30;99.90;;;;;;4190976;28;20058;-50
2021/12/05 14:13:39;;;;;;;3.70;3.40;;;8.30;99.90;;;;;;4177798;28;20055;-53
2021/12/05 14:15:41;;;;;;;5.72;4.00;;;8.30;99.90;;;;;;4191790;28;20040;-52
2021/12/05 14:17:48;;;;;;;1.52;1.42;;;8.30;99.90;;;;;;4191307;28;20558;-52
2021/12/05 14:20:06;;;;;;;2.15;2.03;;;8.30;99.90;;;;;;4189636;28;20045;-52
2021/12/05 14:22:11;;;;;;;2.70;2.58;;;8.40;99.90;;;;;;4191972;28;20067;-51
2021/12/05 14:24:15;;;;;;;5.55;1.73;;;8.40;99.90;;;;;;4191673;28;20071;-52
2021/12/05 14:26:20;;;;;;;2.00;1.50;;;8.40;99.90;;;;;;4193413;28;20080;-52
2021/12/05 14:28:23;;;;;;;3.63;2.75;;;8.40;99.90;;;;;;4191246;28;20107;-53
2021/12/05 14:30:28;;;;;;;4.35;2.60;;;8.70;99.90;;;;;;4192622;28;20094;-52
2021/12/05 14:32:34;;;;;;;3.28;3.08;;;8.70;99.90;;;;;;4191702;28;20060;-51
2021/12/05 14:34:37;;;;;;;8.57;7.40;;;8.60;99.90;;;;;;4193111;28;20500;-52
2021/12/05 14:36:41;;;;;;;;;;;8.50;99.90;;;;;;4193143;28;20135;-52
2021/12/05 14:38:43;;;;;;;6.30;5.97;;;8.50;99.90;;;;;;4193007;28;19924;-51
2021/12/05 14:40:45;;;;;;;4.90;4.60;;;8.50;99.90;;;;;;4193754;28;20049;-52
2021/12/05 14:42:50;;;;;;;10.70;7.18;;;8.40;99.90;;;;;;4192782;28;20037;-52
2021/12/05 14:44:55;;;;;;;10.15;7.45;;;8.60;99.90;;;;;;4191597;28;20087;-53
2021/12/05 14:47:10;;;;;;;4.10;3.92;;;8.50;99.90;;;;;;4191639;28;20484;-52
2021/12/05 14:49:12;;;;;;;4.63;4.28;;;8.60;99.90;;;;;;4191684;28;20423;-52
2021/12/05 14:51:15;;;;;;;5.93;4.28;;;8.70;99.90;;;;;;4193145;28;20087;-49
2021/12/05 14:53:18;;;;;;;4.57;4.15;;;8.50;99.90;;;;;;4192833;28;20535;-50
2021/12/05 14:55:27;;;;;;;5.10;4.45;;;8.40;99.90;;;;;;4182008;28;20141;-51
2021/12/05 14:57:33;;;;;;;8.52;6.75;;;8.20;99.90;;;;;;4184206;28;20140;-50
2021/12/05 14:59:36;;;;;;;6.18;5.85;;;7.90;99.90;;;;;;4189655;28;20051;-50
2021/12/05 15:01:40;;;;;;;3.95;3.78;;;7.60;99.90;;;;;;4190009;28;20032;-48
2021/12/05 15:03:43;;;;;;;6.15;5.65;;;7.50;99.90;;;;;;4188099;28;20543;-51
2021/12/05 15:05:54;;;;;;;17.70;9.45;;;7.60;99.90;;;;;;4188404;28;20378;-50
2021/12/05 15:08:06;;;;;;;18.75;14.57;;;7.60;99.90;;;;;;4188274;28;20572;-49
2021/12/05 15:10:10;;;;;;;16.65;13.07;;;7.50;99.90;;;;;;4187655;28;20156;-49
2021/12/05 15:12:19;;;;;;;23.33;15.40;;;7.10;99.90;;;;;;4187579;28;20052;-49
2021/12/05 15:14:23;;;;;;;15.85;12.00;;;7.00;99.90;;;;;;4187125;28;20082;-47
2021/12/05 15:16:25;;;;;;;14.43;11.57;;;6.90;99.90;;;;;;4188062;28;20143;-50
2021/12/05 15:18:34;;;;;;;14.20;12.90;;;6.80;99.90;;;;;;4185795;28;20636;-48
2021/12/05 15:20:36;;;;;;;9.88;9.13;;;6.70;99.90;;;;;;4188940;28;20099;-49
2021/12/05 15:22:40;;;;;;;9.80;8.35;;;6.60;99.90;;;;;;4190225;28;20072;-48
2021/12/05 15:24:50;;;;;;;7.60;6.95;;;6.60;99.90;;;;;;4190623;28;20052;-51
2021/12/05 15:26:53;;;;;;;7.05;6.30;;;6.70;99.90;;;;;;4194334;28;20037;-52
2021/12/05 15:29:03;;;;;;;10.25;9.25;;;6.80;99.90;;;;;;4191205;28;20059;-49
2021/12/05 15:31:21;;;;;;;12.63;9.45;;;6.70;99.90;;;;;;4194238;28;20043;-49
2021/12/05 15:33:26;;;;;;;11.52;9.93;;;6.70;99.90;;;;;;4191622;28;20037;-48
2021/12/05 15:35:30;;;;;;;4.00;3.80;;;6.70;99.90;;;;;;4193275;28;20121;-49
2021/12/05 15:37:33;;;;;;;6.22;5.32;;;6.70;99.90;;;;;;4193469;28;20072;-48
2021/12/05 15:39:39;;;;;;;6.22;4.82;;;6.70;99.90;;;;;;4191976;28;20504;-49
2021/12/05 15:41:41;;;;;;;30.30;19.23;;;6.70;99.90;;;;;;4189868;28;20470;-48
2021/12/05 15:43:43;;;;;;;40.60;23.52;;;6.60;99.90;;;;;;4190172;28;20049;-49
2021/12/05 15:45:48;;;;;;;30.75;22.58;;;6.50;99.90;;;;;;4189780;28;20072;-50
2021/12/05 15:47:51;;;;;;;32.03;21.70;;;6.40;99.90;;;;;;4192713;28;20071;-48
2021/12/05 15:50:27;;;;;;;57.60;36.13;;;6.30;99.90;;;;;;4189201;28;20118;-49
2021/12/05 15:52:35;;;;;;;42.08;27.10;;;6.10;99.90;;;;;;4126501;28;20054;-49
2021/12/05 15:54:39;;;;;;;26.33;19.33;;;5.90;99.90;;;;;;4125433;28;20140;-49
2021/12/05 15:56:42;;;;;;;17.13;12.02;;;5.80;99.90;;;;;;4121750;28;20586;-50
2021/12/05 15:58:49;;;;;;;11.20;9.55;;;5.60;99.90;;;;;;4122311;28;20078;-50
2021/12/05 16:01:01;;;;;;;16.45;9.50;;;5.40;99.90;;;;;;4121682;28;20054;-49
2021/12/05 16:03:23;;;;;;;14.48;10.45;;;5.30;99.90;;;;;;4119488;28;20038;-49
2021/12/05 16:05:26;;;;;;;15.20;12.63;;;5.40;99.90;;;;;;4117153;28;20046;-51
2021/12/05 16:07:30;;;;;;;20.40;13.13;;;5.50;99.90;;;;;;4121764;28;20140;-48
2021/12/05 16:09:32;;;;;;;15.15;12.27;;;5.60;99.90;;;;;;4094611;28;20061;-51
2021/12/05 16:11:34;;;;;;;16.80;12.68;;;5.60;99.90;;;;;;4121095;28;20050;-50
2021/12/05 16:13:41;;;;;;;41.50;25.05;;;5.50;99.90;;;;;;4118265;28;20712;-51
2021/12/05 16:15:47;;;;;;;15.90;11.48;;;5.50;99.90;;;;;;4121415;28;20054;-51
2021/12/05 16:18:01;;;;;;;28.63;17.77;;;5.40;99.90;;;;;;4118892;28;20074;-50
2021/12/05 16:20:16;;;;;;;30.17;18.80;;;5.30;99.90;;;;;;4119453;28;20085;-50
2021/12/05 16:22:18;;;;;;;31.50;16.08;;;5.20;99.90;;;;;;4118306;28;20038;-52